Agate Beach, Washington
Current Conditions -  °F | °C
As of 1:41 PM on Saturday 25 Oct 2014 (Local Time) from KCLM Reporting Station
Light Rain Light Rain  
Wind Chill: 52°   Ceiling: 7000
Heat Index: 52°   Visibility: 10mi
Dew Point: 49°   Wind: 0mph
Humidity: 89%   Direction: NA
Pressure: 29.33"   Gusts: NA
Location:  48.1359°N, 123.734°W
Report Text: KCLM 252041Z AUTO 00000KT 10SM -RA FEW008 OVC070 11/09 A2933 RMK AO2 P0004 T01110094 TSNO $
Loading
Personal Weather Stations






























Interactive Weather Map New forecast layout! Learn more

10-Day Weather Forecast

Advertisements
Track Severe Weather on mobile